Latest Weather Observations for Normanton

IDQ60801

Issued at 4:35 pm EST Wednesday 3 September 2014 (issued every 30 minutes, with the page automatically refreshed every 10 minutes)

About weather observations | Map of weather stations | Latest weather observations for QLD | Other Formats
Station Details ID: 029063 Name: NORMANTON AIRPORT Lat: -17.69 Lon: 141.07 Height: 18.42 m
Data from the previous 72 hours. | See also: Recent months at Normanton
Date/Time
EST
Temp
°C
App
Temp
°C
Dew
Point
Rel
Hum
%
Delta-T
°C
Wind Press
QNH
hPa
Press
MSL
hPa
Rain
since 9 am
mm
Dir
 
Spd
km/h
Gust
km/h
Spd
kts
Gust
kts
03/04:30pm 30.0 24.0 -6.3 9 15.5 SSE 17 30 9 16 1012.7 - 0.0
03/04:00pm 30.0 23.1 -6.3 9 15.5 SSE 22 30 12 16 1012.8 - 0.0
03/03:30pm 30.1 22.8 -6.2 9 15.6 SSW 24 30 13 16 1013.0 - 0.0
03/03:00pm 29.6 23.7 -5.2 10 15.1 SSE 17 28 9 15 1013.2 1013.0 0.0
03/02:30pm 29.7 22.8 -2.7 12 14.7 S 24 32 13 17 1013.7 - 0.0
03/02:00pm 29.4 23.9 -1.9 13 14.4 SSE 17 30 9 16 1014.1 - 0.0
03/01:30pm 28.7 22.7 -1.4 14 13.9 SSE 20 32 11 17 1014.3 - 0.0
03/01:00pm 28.7 21.5 -2.4 13 14.1 S 26 35 14 19 1015.0 - 0.0
03/12:30pm 28.0 20.3 -3.0 13 13.8 S 28 39 15 21 1015.4 - 0.0
03/12:00pm 27.6 20.7 -2.3 14 13.5 SSE 24 37 13 20 1015.9 1015.7 0.0
03/11:30am 26.2 19.4 -1.6 16 12.5 SSE 24 35 13 19 1016.3 - 0.0
03/11:00am 25.6 18.5 -1.2 17 12.1 SSE 26 35 14 19 1016.7 - 0.0
03/10:30am 24.5 18.2 -1.3 18 11.5 SSE 22 32 12 17 1017.2 - 0.0
03/10:00am 24.1 17.4 -0.9 19 11.2 SSE 24 35 13 19 1017.4 - 0.0
03/09:30am 22.8 16.2 -0.6 21 10.5 SSE 24 35 13 19 1017.3 - 0.0
03/09:00am 22.2 15.2 -0.5 22 10.1 SSE 26 44 14 24 1017.4 1017.2 0.0
03/08:50am 21.9 14.2 -0.1 23 9.9 SSE 30 48 16 26 1017.3 - 0.0
03/08:30am 20.9 13.1 -1.0 23 9.6 SSE 30 46 16 25 1017.3 - 0.0
03/08:00am 20.3 12.5 -0.9 24 9.2 SSE 30 43 16 23 1017.2 - 0.0
03/07:30am 19.4 11.9 -1.7 24 9.0 S 28 35 15 19 1016.9 - 0.0
03/07:00am 19.1 11.6 -1.4 25 8.7 S 28 37 15 20 1016.7 - 0.0
03/06:30am 19.3 11.8 -1.7 24 8.9 S 28 39 15 21 1016.3 - 0.0
03/06:00am 19.7 12.1 -2.0 23 9.2 S 28 37 15 20 1016.0 1015.7 0.0
03/05:30am 20.2 12.3 -1.6 23 9.3 S 30 41 16 22 1015.6 - 0.0
03/05:00am 20.7 12.2 -1.8 22 9.6 S 33 46 18 25 1015.2 - 0.0
03/04:30am 21.2 12.7 -2.0 21 10.0 S 33 46 18 25 1015.0 - 0.0
03/04:00am 21.6 13.6 -2.3 20 10.2 S 30 44 16 24 1015.2 - 0.0
03/03:30am 22.2 14.3 -1.8 20 10.4 S 30 39 16 21 1015.2 - 0.0
03/03:00am 22.8 15.4 -0.6 21 10.5 S 28 39 15 21 1015.2 1015.0 0.0
03/02:30am 23.0 15.8 0.8 23 10.2 S 28 41 15 22 1015.2 - 0.0
03/02:00am 23.5 16.9 1.8 24 10.2 S 26 33 14 18 1015.4 - 0.0
03/01:30am 24.0 17.8 2.2 24 10.4 S 24 32 13 17 1015.5 - 0.0
03/01:00am 24.3 18.2 2.5 24 10.5 S 24 32 13 17 1015.5 - 0.0
03/12:30am 24.8 18.2 2.3 23 10.8 S 26 33 14 18 1015.4 - 0.0
03/12:00am 25.1 18.5 1.9 22 11.1 S 26 35 14 19 1015.5 1015.3 0.0
 
Date/Time
EST
Temp
°C
App
Temp
°C
Dew
Point
Rel
Hum
%
Delta-T
°C
Wind Press
QNH
hPa
Press
MSL
hPa
Rain
since 9 am
mm
Dir
 
Spd
km/h
Gust
km/h
Spd
kts
Gust
kts
02/11:30pm 24.1 18.4 0.4 21 10.9 S 20 24 11 13 1015.4 - 0.0
02/11:00pm 23.9 18.6 -0.4 20 11.0 S 17 20 9 11 1015.2 - 0.0
02/10:30pm 24.5 19.1 -1.3 18 11.5 S 17 22 9 12 1015.1 - 0.0
02/10:00pm 24.9 19.0 -2.6 16 12.0 S 19 22 10 12 1015.2 - 0.0
02/09:30pm 24.9 19.3 -2.6 16 12.0 S 17 20 9 11 1015.1 - 0.0
02/09:00pm 24.5 19.5 -4.7 14 12.2 SSW 13 15 7 8 1014.8 1014.6 0.0
02/08:30pm 25.4 20.6 -6.0 12 13.0 S 11 15 6 8 1014.3 - 0.0
02/08:00pm 27.7 21.7 -6.6 10 14.3 S 17 22 9 12 1013.9 - 0.0
02/07:30pm 29.0 22.6 -7.0 9 15.1 S 19 22 10 12 1013.7 - 0.0
02/07:00pm 30.1 23.6 -6.2 9 15.6 S 20 26 11 14 1013.4 - 0.0
02/06:30pm 31.5 24.5 -6.7 8 16.4 S 22 30 12 16 1013.0 - 0.0
02/06:00pm 32.8 25.7 -4.2 9 16.8 S 24 35 13 19 1012.7 1012.5 0.0
02/05:30pm 33.6 27.0 -3.6 9 17.2 S 22 39 12 21 1012.6 - 0.0
02/05:00pm 33.7 27.4 -0.8 11 16.7 SSE 22 35 12 19 1012.5 - 0.0
02/04:30pm 34.1 27.3 0.7 12 16.6 SSE 26 37 14 20 1012.5 - 0.0
02/04:00pm 34.3 27.1 -1.7 10 17.2 S 26 35 14 19 1012.4 - 0.0
02/03:30pm 34.3 27.9 -1.7 10 17.2 SSE 22 33 12 18 1012.5 - 0.0
02/03:00pm 34.9 27.2 -2.6 9 17.7 S 28 41 15 22 1012.8 1012.6 0.0
02/02:30pm 34.2 28.2 -3.2 9 17.4 SSE 19 35 10 19 1012.9 - 0.0
02/02:00pm 34.2 27.8 -1.7 10 17.2 S 22 35 12 19 1013.3 - 0.0
02/01:30pm 33.5 27.4 0.2 12 16.3 S 22 33 12 18 1013.9 - 0.0
02/01:00pm 33.6 27.8 2.4 14 15.9 S 22 35 12 19 1014.3 - 0.0
02/12:30pm 31.8 28.2 6.8 21 13.5 S 15 28 8 15 1015.0 - 0.0
02/12:00pm 30.8 28.0 8.5 25 12.3 E 13 22 7 12 1015.5 1015.4 0.0
02/11:30am 30.1 28.3 9.6 28 11.5 ENE 9 17 5 9 1016.2 - 0.0
02/11:00am 28.7 26.8 8.9 29 10.9 ENE 9 17 5 9 1016.6 - 0.0
02/10:30am 28.4 27.0 9.6 31 10.5 NE 7 13 4 7 1017.0 - 0.0
02/10:00am 26.8 25.1 8.3 31 10.0 ENE 7 13 4 7 1017.2 - 0.0
02/09:30am 26.3 24.7 7.8 31 9.9 E 6 13 3 7 1017.3 - 0.0
02/09:00am 25.0 22.5 8.1 34 9.0 SSW 11 13 6 7 1017.1 1016.9 0.0
02/08:30am 23.1 20.7 8.8 40 7.6 SSW 11 15 6 8 1017.0 - 0.0
02/08:00am 20.8 19.2 11.7 56 5.1 S 11 20 6 11 1017.0 - 0.0
02/07:30am 18.1 18.7 11.9 67 3.4 CALM 0 0 0 0 1016.5 - 0.0
02/07:00am 17.0 15.5 11.9 72 2.8 E 11 15 6 8 1016.2 - 0.0
02/06:30am 16.8 15.3 11.9 73 2.7 SW 11 13 6 7 1015.3 - 0.0
02/06:00am 16.3 15.7 13.6 84 1.5 S 9 20 5 11 1015.2 1014.9 0.0
02/05:30am 16.4 16.5 16.4 100 0.0 E 11 15 6 8 1014.7 - 0.0
02/05:00am 16.4 16.9 15.6 95 0.5 S 7 7 4 4 1014.8 - 0.0
02/04:30am 17.6 18.7 17.0 96 0.4 S 7 9 4 5 1014.9 - 0.0
02/04:00am 17.6 19.9 17.6 100 0.0 SW 2 6 1 3 1015.0 - 0.0
02/03:30am 18.1 19.6 18.1 100 0.0 SSW 7 9 4 5 1014.8 - 0.0
02/03:00am 18.0 20.7 17.8 99 0.1 CALM 0 0 0 0 1015.0 1014.8 0.0
02/02:30am 18.3 19.8 17.7 96 0.4 WSW 6 7 3 4 1015.0 - 0.0
02/02:00am 18.6 19.6 18.6 100 0.0 SW 11 15 6 8 1015.3 - 0.0
02/01:30am 17.9 18.9 17.7 99 0.1 SW 9 13 5 7 1015.3 - 0.0
02/01:00am 18.3 19.2 17.5 95 0.5 W 9 11 5 6 1015.2 - 0.0
02/12:30am 18.5 19.6 17.0 91 0.9 WSW 7 9 4 5 1015.3 - 0.0
02/12:00am 18.9 19.6 16.1 84 1.7 WNW 7 9 4 5 1015.5 1015.3 0.0
 
Date/Time
EST
Temp
°C
App
Temp
°C
Dew
Point
Rel
Hum
%
Delta-T
°C
Wind Press
QNH
hPa
Press
MSL
hPa
Rain
since 9 am
mm
Dir
 
Spd
km/h
Gust
km/h
Spd
kts
Gust
kts
01/11:30pm 19.2 19.8 15.3 78 2.3 WNW 6 9 3 5 1015.3 - 0.0
01/11:00pm 19.7 20.8 15.6 77 2.4 WNW 4 6 2 3 1015.0 - 0.0
01/10:30pm 20.2 20.7 15.0 72 3.1 WSW 6 7 3 4 1014.8 - 0.0
01/10:00pm 20.5 20.7 14.8 70 3.3 W 7 9 4 5 1014.7 - 0.0
01/09:30pm 21.3 21.1 14.7 66 3.9 NW 9 11 5 6 1014.3 - 0.0
01/09:00pm 22.4 21.8 13.5 57 5.1 NW 9 13 5 7 1014.3 1014.0 0.0
01/08:30pm 23.2 22.9 13.4 54 5.7 NW 7 9 4 5 1013.9 - 0.0
01/08:00pm 24.5 23.7 12.8 48 6.8 NW 9 11 5 6 1013.5 - 0.0
01/07:30pm 25.4 23.7 11.2 41 8.0 WNW 11 13 6 7 1013.3 - 0.0
01/07:00pm 26.7 24.9 10.8 37 9.0 WNW 11 13 6 7 1013.0 - 0.0
01/06:30pm 28.0 25.5 9.8 32 10.2 WNW 13 17 7 9 1012.7 - 0.0
01/06:00pm 29.3 26.2 10.4 31 10.7 WNW 17 20 9 11 1012.6 1012.4 0.0
01/05:30pm 29.8 26.6 11.8 33 10.5 NW 20 24 11 13 1012.3 - 0.0
01/05:00pm 30.9 28.0 12.3 32 11.0 NW 19 24 10 13 1012.0 - 0.0
01/04:30pm 30.9 28.0 12.3 32 11.0 NW 19 24 10 13 1011.7 - 0.0
01/04:00pm 30.9 28.6 11.8 31 11.2 W 15 20 8 11 1012.0 - 0.0
01/03:30pm 31.2 28.8 12.5 31 11.1 WNW 17 24 9 13 1012.3 - 0.0
01/03:00pm 30.9 29.4 11.8 31 11.2 N 11 17 6 9 1012.5 1012.3 0.0
01/02:30pm 30.6 28.4 12.0 32 10.9 NW 15 26 8 14 1013.1 - 0.0
01/02:00pm 30.8 28.3 12.2 32 10.9 NW 17 24 9 13 1013.6 - 0.0
01/01:30pm 31.2 29.1 13.5 34 10.6 NW 17 28 9 15 1014.0 - 0.0
01/01:00pm 30.7 28.7 10.1 28 11.7 N 11 15 6 8 1014.5 - 0.0
01/12:30pm 30.1 29.1 11.1 31 10.9 NNE 7 15 4 8 1015.0 - 0.0
01/12:00pm 29.4 29.1 13.2 37 9.6 N 7 22 4 12 1015.7 1015.5 0.0
01/11:30am 28.5 27.3 12.8 38 9.2 N 11 20 6 11 1016.4 - 0.0
01/11:00am 28.0 27.3 14.3 43 8.2 N 11 20 6 11 1016.7 - 0.0
01/10:30am 26.9 26.4 15.0 48 7.2 N 11 20 6 11 1017.1 - 0.0
01/10:00am 24.9 23.1 14.4 52 6.2 N 17 24 9 13 1017.2 - 0.0
01/09:30am 23.6 21.8 13.2 52 6.0 NNE 15 20 8 11 1017.2 - 0.0
01/09:00am 21.6 20.9 13.2 59 4.8 NNE 9 15 5 8 1017.0 1016.8 0.0
01/08:30am 19.9 18.7 12.7 63 4.1 NE 11 17 6 9 1016.6 - 0.0
01/08:00am 18.7 17.2 12.0 65 3.7 E 11 17 6 9 1016.1 - 0.0
01/07:30am 17.7 16.5 11.7 68 3.3 SE 9 13 5 7 1015.8 - 0.0
01/07:00am 16.3 15.4 12.5 78 2.1 SE 9 13 5 7 1015.3 - 0.0
01/06:30am 15.8 14.8 12.2 79 2.0 ESE 9 11 5 6 1014.8 - 0.0
01/06:00am 17.0 14.0 12.5 75 2.5 ESE 20 32 11 17 1014.4 1014.3 0.0
01/05:30am 16.3 15.2 13.2 82 1.7 S 11 11 6 6 1013.8 - 0.0
01/05:00am 16.6 15.9 13.1 80 2.0 S 9 11 5 6 1013.6 - 0.0
01/04:30am 16.6 15.9 13.1 80 2.0 S 9 11 5 6 1013.6 - 0.0
01/04:00am 16.3 16.2 13.2 82 1.7 SE 6 7 3 4 1013.5 - 0.0
01/03:30am 19.0 18.1 12.5 66 3.6 SSW 9 17 5 9 1013.5 - 0.0
01/03:00am 17.4 17.2 15.6 89 1.1 SW 11 15 6 8 1013.2 1013.0 0.0
01/02:30am 17.0 17.1 15.5 91 0.9 SW 9 11 5 6 1013.4 - 0.0
01/02:00am 16.7 18.0 16.1 96 0.4 SSW 4 6 2 3 1013.5 - 0.0
01/01:30am 17.4 17.6 15.7 90 1.0 SSW 9 9 5 5 1013.7 - 0.0
01/01:00am 17.5 17.7 15.7 89 1.1 S 9 13 5 7 1013.9 - 0.0
01/12:30am 18.0 18.7 16.2 89 1.1 S 7 11 4 6 1013.9 - 0.0
01/12:00am 18.1 19.8 16.1 88 1.2 NW 2 9 1 5 1013.6 1013.5 0.0
 
Date/Time
EST
Temp
°C
App
Temp
°C
Dew
Point
Rel
Hum
%
Delta-T
°C
Wind Press
QNH
hPa
Press
MSL
hPa
Rain
since 9 am
mm
Dir
 
Spd
km/h
Gust
km/h
Spd
kts
Gust
kts
31/11:30pm 18.8 19.5 16.2 85 1.6 W 7 7 4 4 1013.6 - 0.0
31/11:00pm 20.0 21.1 16.6 81 2.1 W 6 7 3 4 1013.8 - 0.0
31/10:30pm 20.3 21.4 16.5 79 2.3 WNW 6 9 3 5 1013.9 - 0.0
31/10:00pm 20.3 20.6 15.1 72 3.1 WNW 7 9 4 5 1013.8 - 0.0
31/09:30pm 21.3 21.7 15.4 69 3.5 WNW 7 9 4 5 1013.9 - 0.0
31/09:00pm 21.9 22.2 15.0 65 4.1 WNW 7 9 4 5 1013.8 1013.7 0.0
31/08:30pm 22.3 22.2 14.9 63 4.4 WNW 9 11 5 6 1013.6 - 0.0
31/08:00pm 22.9 22.9 15.2 62 4.6 NW 9 13 5 7 1013.3 - 0.0
31/07:30pm 23.6 22.8 15.1 59 5.1 NW 13 17 7 9 1012.7 - 0.0
31/07:00pm 24.6 23.8 15.0 55 5.8 NNW 13 17 7 9 1012.4 - 0.0
31/06:30pm 26.3 24.4 13.1 44 7.7 NW 15 19 8 10 1012.0 - 0.0
31/06:00pm 28.0 25.1 12.4 38 9.1 NW 19 22 10 12 1011.6 1011.5 0.0
31/05:30pm 29.0 26.3 12.8 36 9.5 WNW 19 24 10 13 1011.3 - 0.0
31/05:00pm 29.5 26.2 12.9 36 9.8 WNW 22 26 12 14 1011.3 - 0.0

Other Formats:

Comma delimited format used in spreadsheet applications
http://www.bom.gov.au/fwo/IDQ60801/IDQ60801.94266.axf

JavaScript Object Notation format (JSON) in row-major order
http://www.bom.gov.au/fwo/IDQ60801/IDQ60801.94266.json